Madison, NH

8:17 PM EST on November 23, 2014 (GMT -0500)
APRSWXNET Madison NH US | Change Station
CLOSE
Current Station
Personal Weather Station
Location: Madison, NH
Elevation: 951 ft
Nearby Weather Stations

Elev 951 ft 43.89 °N, 71.12 °W | Updated 31 minutes ago

Clear
Clear
43.0 °F
Feels Like 43.0 °F
N
0.0
Wind Variable Wind from WSW
Gusts 1.0 mph

Today
High -- | Low -- °F
--% Chance of Precip.
Yesterday
High -- | Low -- °F
Precip. -- in
6:49 AM 4:12 PM
Waxing Crescent, 3% visible
Pressure 30.14 in
Visibility 5.0 miles
Clouds Clear
Dew Point 39.0 °F
Humidity 85%
Rainfall 0.02 in
Snow Depth Not available.
UV 0 out of 12
Pollen .10 out of 12
Air Quality Not available.
Flu Activity Not available.
METAR KIZG 240054Z AUTO 00000KT 5SM BR CLR 01/M01 A3012 RMK AO2 SLP206 T00061006

More Conditions Fewer Conditions

Pressure 30.14 in
Visibility 5.0 miles
Clouds Clear
Dew Point 39.0 °F
Humidity 85%
Rainfall 0.02 in
Snow Depth Not available.
UV 0 out of 12
Pollen .10 out of 12
Air Quality Not available.
Flu Activity Not available.
METAR KIZG 240054Z AUTO 00000KT 5SM BR CLR 01/M01 A3012 RMK AO2 SLP206 T00061006

More Conditions Fewer Conditions

10-Day Weather Forecast

Almanac

Astronomy

Nov. 23, 2014 Rise Set
Actual Time
Civil Twilight
Nautical Twilight
Astronomical Twilight
Moon
Length of Visible Light
Length of Day
Tomorrow will be .
, % of the Moon is Illuminated

Today's Extremes

State Highs State Lows

Community

WunderPhotos

Upload Photos

1,773,234 photos uploaded!

WunderBlogs® & News

Nearby

Air Quality

  Air Quality AQ Index Pollutant
Not available.

Snow Depth

Station Depth Elevation

Earthquake Activity

City Distance Mag. Time & Date
Minimum magnitude displayed is 2.5.

Coastal Water Temperatures

Place Temperature

Nearby Weather Stations